Terminal Aerodrome Forecast
Issued by NWS

Home | Current Version | Previous Version | Text Only | Print | Product List | Glossary On
Versions: 1 2 3 4 5 6 7 8 9 10 11 12 13 14 15 16
565
FTUS44 KLZK 161852 CCA
TAFLIT
TAF COR
KLIT 161852Z 1618/1718 32010G17KT P6SM FEW030
     FM170200 33004KT P6SM SKC=

USA.gov is the U.S. government's official web portal to all federal, state and local government web resources and services.